• Join FlightAware (Why Join?)
  • Login
  • US Flag 
02:14PM EDT


 

Airport Tracker/Info


-or-


 

Live Flight TrackerFlight Track Log ✈ N319EE ✈ 02-Oct-2013 ✈ KROC - KBGM

Flight Track Log - Related Links

Times and Time Zones

All times are in EDT time to prevent confusion due to time zone crossing. See the N319EE flight status page for this flight to view local times or setup timezone preferences in your user account.

Time Position Orientation Groundspeed Altitude Reporting Facility
EDT Latitude Longitude Course Direction KTS MPH feet Rate Location/Type
09:47PM 43.0792 -77.7003 201° Southwest 170 196 2,700  Level Cleveland Center
09:47PM 43.0717 -77.6956 155° Southeast 198 228 3,000 2,040 Climbing Cleveland Center
09:48PM 43.0381 -77.6464 133° Southeast 211 243 4,800 2,100 Climbing Cleveland Center
09:49PM 43.0011 -77.5656 122° Southeast 208 239 7,300 2,160 Climbing Cleveland Center
09:50PM 42.9672 -77.4964 124° Southeast 216 249 9,300 1,800 Climbing Cleveland Center
09:51PM 42.9339 -77.4286 124° Southeast 215 247 11,000 780 Climbing Cleveland Center
09:52PM 42.8939 -77.3467 124° Southeast 255 293 11,000  Level Cleveland Center
09:53PM 42.8483 -77.2564 125° Southeast 284 327 11,000  Level Cleveland Center
09:54PM 42.8039 -77.1661 124° Southeast 286 329 11,000  Level Cleveland Center
09:55PM 42.7603 -77.0756 123° Southeast 285 328 11,000  Level Cleveland Center
09:56PM 42.7167 -76.9869 124° Southeast 283 326 11,000  Level Cleveland Center
09:57PM 42.6722 -76.8986 124° Southeast 281 323 11,000 -60 Level Cleveland Center
09:58PM 42.6278 -76.8064 123° Southeast 285 328 10,900 -60 Descending Cleveland Center
09:59PM 42.5769 -76.6989 123° Southeast 285 328 10,900 -600 Level Cleveland Center
10:00PM 42.5325 -76.6014 122° Southeast 295 339 9,700 -960 Descending Cleveland Center
10:01PM 42.4872 -76.5036 122° Southeast 306 352 9,000 -420 Descending Cleveland Center
10:02PM 42.4528 -76.4275 122° Southeast 298 343 9,000 -420 Level New York Center
10:03PM 42.4111 -76.3397 123° Southeast 287 330 8,300 -1,320 Descending New York Center
10:04PM 42.3672 -76.2517 124° Southeast 287 330 6,400 -1,680 Descending New York Center
10:05PM 42.3275 -76.1669 122° Southeast 287 330 5,000 -1,320 Descending New York Center
10:06PM 42.2872 -76.0908 126° Southeast 274 315 3,800 -1,200 Descending New York Center
10:07PM 42.2569 -76.0239 121° Southeast 238 274 2,600 -900 Descending New York Center
10:08PM 42.2161 -75.9592 130° Southeast 210 242 2,100 -540 Descending New York Center